Main page
METAR-TAF:

METAR-TAF

Airports :

RAF Benson

Benson, England

latitude: 51-37N, longitude: 001-05W, elevation: 63 m

Current weather observation

The report was made 44 minutes ago, at 19:20 UTC
Wind 10 kt from the Southwest
Temperature 16°C
Humidity 72%
Pressure 1006 hPa
Visibility 10 km or more
Few clouds at a height of 2800 ft, Towering cumulus.
showers in vicinity

METAR: EGUB 281920Z 22010KT 9999 VCSH FEW028TCU 16/11 Q1006 NOSIG RMK BLU BLU

Time: 21:04 (20:04 UTC)

Forecast

The report was made 3 hours and 39 minutes ago, at 16:25 UTC
Forecast valid from 28 at 18 UTC to 29 at 03 UTC
Wind 14 kt from the West/Southwest
Visibility 10 km or more
Scattered clouds at a height of 4800 ft
Probability 40% :
Temporary
from 28 at 18 UTC to 28 at 19 UTC
Visibility: 5000 m
rain showers

TAF: EGUB 281625Z 2818/2903 24014KT 9999 SCT048 PROB40 TEMPO 2818/2819 5000 SHRA

Weather observations and forecasts of more than 4000 airports (METAR and TAF reports).

The available stations are represented by yellow and red dots on the map.

Hover mouse over dot to see the name of the station.

Then click to see weather observations and forecasts.

To change the map : click on the green buttons with a black cross to zoom in, on the green button with a dash to zoom out, or on the green arrows for adjacent maps.


METAR-TAF: